TimeEST,TemperatureF,Dew PointF,Humidity,Sea Level PressureIn,VisibilityMPH,Wind Direction,Wind SpeedMPH,Gust SpeedMPH,PrecipitationIn,Events,Conditions,WindDirDegrees,DateUTC
12:13 AM,22.6,21.0,93,29.80,10.0,SSW,3.5,-,N/A,,Overcast,200,2013-02-24 05:13:00
12:33 AM,23.0,21.2,93,29.80,10.0,Calm,Calm,-,N/A,,Overcast,0,2013-02-24 05:33:00
12:54 AM,23.2,21.9,95,29.80,10.0,SW,3.5,-,N/A,,Overcast,230,2013-02-24 05:54:00
1:54 AM,21.4,19.8,93,29.81,10.0,Calm,Calm,-,N/A,,Clear,0,2013-02-24 06:54:00
2:13 AM,20.5,18.7,93,29.81,10.0,Calm,Calm,-,N/A,,Scattered Clouds,0,2013-02-24 07:13:00
2:34 AM,20.3,18.7,93,29.82,0.8,Calm,Calm,-,N/A,,Overcast,0,2013-02-24 07:34:00
2:54 AM,19.4,17.8,93,29.81,0.5,Calm,Calm,-,N/A,Fog,Light Freezing Fog,0,2013-02-24 07:54:00
3:13 AM,20.3,18.9,94,29.81,0.2,West,3.5,-,N/A,Fog,Light Freezing Fog,270,2013-02-24 08:13:00
3:34 AM,18.1,16.0,91,29.81,3.0,West,3.5,-,N/A,,Scattered Clouds,280,2013-02-24 08:34:00
3:54 AM,18.7,16.9,93,29.82,10.0,West,3.5,-,N/A,,Clear,270,2013-02-24 08:54:00
4:13 AM,17.6,15.3,91,29.82,10.0,West,3.5,-,N/A,,Scattered Clouds,280,2013-02-24 09:13:00
4:34 AM,19.8,18.1,93,29.83,2.5,NW,3.5,-,N/A,,Overcast,320,2013-02-24 09:34:00
5:13 AM,19.0,17.2,93,29.84,0.5,NW,4.6,-,N/A,Fog,Light Freezing Fog,320,2013-02-24 10:13:00
5:34 AM,18.9,17.1,93,29.85,2.0,Calm,Calm,-,N/A,,Overcast,0,2013-02-24 10:34:00
5:53 AM,17.6,15.6,92,29.86,0.8,NW,3.5,-,N/A,,Overcast,310,2013-02-24 10:53:00
6:13 AM,17.6,15.6,92,29.86,1.2,NNW,4.6,-,N/A,,Overcast,340,2013-02-24 11:13:00
6:34 AM,16.7,14.7,92,29.87,1.0,NNW,4.6,-,N/A,,Overcast,340,2013-02-24 11:34:00
6:53 AM,15.4,13.1,90,29.88,10.0,NNW,3.5,-,N/A,,Mostly Cloudy,330,2013-02-24 11:53:00
7:14 AM,14.0,11.3,89,29.88,10.0,West,4.6,-,N/A,,Mostly Cloudy,280,2013-02-24 12:14:00
7:33 AM,14.0,11.7,90,29.90,10.0,West,4.6,-,N/A,,Mostly Cloudy,260,2013-02-24 12:33:00
7:53 AM,13.8,11.7,91,29.90,10.0,West,6.9,-,N/A,,Mostly Cloudy,280,2013-02-24 12:53:00
8:14 AM,14.7,12.6,91,29.90,10.0,WNW,3.5,-,N/A,,Mostly Cloudy,300,2013-02-24 13:14:00
8:33 AM,13.8,11.3,90,29.91,10.0,WNW,4.6,-,N/A,,Mostly Cloudy,290,2013-02-24 13:33:00
8:53 AM,15.3,13.1,91,29.92,10.0,West,6.9,-,N/A,,Overcast,280,2013-02-24 13:53:00
9:14 AM,15.3,13.1,91,29.93,5.0,West,6.9,-,N/A,,Overcast,280,2013-02-24 14:14:00
9:33 AM,17.6,15.8,93,29.93,10.0,West,5.8,-,N/A,,Overcast,270,2013-02-24 14:33:00
9:53 AM,18.1,16.2,92,29.94,10.0,West,5.8,-,N/A,,Overcast,270,2013-02-24 14:53:00
10:14 AM,20.1,18.3,93,29.94,10.0,West,5.8,-,N/A,,Overcast,270,2013-02-24 15:14:00
10:33 AM,21.9,20.5,94,29.95,10.0,West,8.1,-,N/A,,Scattered Clouds,270,2013-02-24 15:33:00
10:53 AM,24.8,23.2,94,29.95,10.0,West,9.2,-,N/A,,Clear,260,2013-02-24 15:53:00
11:14 AM,22.1,20.5,93,29.96,10.0,WSW,9.2,-,N/A,,Scattered Clouds,240,2013-02-24 16:14:00
11:33 AM,22.8,21.2,93,29.97,10.0,WSW,6.9,-,N/A,,Scattered Clouds,250,2013-02-24 16:33:00
11:53 AM,24.6,23.2,94,29.97,10.0,West,5.8,-,N/A,,Mostly Cloudy,260,2013-02-24 16:53:00
12:14 PM,27.0,25.7,95,29.97,10.0,West,6.9,-,N/A,,Scattered Clouds,270,2013-02-24 17:14:00
12:33 PM,28.2,27.0,95,29.97,10.0,West,6.9,-,N/A,,Scattered Clouds,260,2013-02-24 17:33:00
12:53 PM,30.2,29.1,96,29.97,10.0,West,9.2,-,N/A,,Mostly Cloudy,270,2013-02-24 17:53:00
1:14 PM,31.1,29.7,94,29.97,10.0,West,10.4,-,N/A,,Mostly Cloudy,270,2013-02-24 18:14:00
1:33 PM,32.0,28.6,87,29.97,10.0,WNW,6.9,-,N/A,,Mostly Cloudy,290,2013-02-24 18:33:00
1:53 PM,33.4,27.3,78,29.98,10.0,WNW,8.1,-,N/A,,Scattered Clouds,300,2013-02-24 18:53:00
2:14 PM,33.4,26.8,77,29.98,10.0,NW,5.8,-,N/A,,Mostly Cloudy,320,2013-02-24 19:14:00
2:33 PM,33.8,25.5,72,29.98,10.0,WNW,9.2,-,N/A,,Mostly Cloudy,300,2013-02-24 19:33:00
2:54 PM,33.4,25.0,71,29.98,10.0,NW,6.9,-,N/A,,Overcast,310,2013-02-24 19:54:00
3:14 PM,32.9,25.0,73,29.98,10.0,NW,6.9,-,N/A,,Overcast,320,2013-02-24 20:14:00
3:33 PM,32.7,24.8,73,30.00,10.0,West,9.2,-,N/A,,Overcast,280,2013-02-24 20:33:00
3:54 PM,31.5,26.1,80,30.00,10.0,West,9.2,-,N/A,,Overcast,260,2013-02-24 20:54:00
4:14 PM,31.5,26.2,81,30.01,10.0,West,9.2,-,N/A,,Overcast,270,2013-02-24 21:14:00
4:33 PM,31.3,26.6,83,30.02,10.0,West,8.1,-,N/A,,Overcast,260,2013-02-24 21:33:00
4:54 PM,31.3,26.2,82,30.02,10.0,West,9.2,-,N/A,,Overcast,270,2013-02-24 21:54:00
5:13 PM,31.1,26.4,83,30.02,10.0,West,9.2,-,N/A,,Overcast,270,2013-02-24 22:13:00
5:33 PM,30.9,26.4,83,30.03,10.0,West,6.9,-,N/A,,Overcast,280,2013-02-24 22:33:00
5:54 PM,30.9,26.4,83,30.04,10.0,West,6.9,-,N/A,,Overcast,270,2013-02-24 22:54:00
6:13 PM,30.7,26.1,83,30.05,10.0,West,5.8,-,N/A,,Overcast,280,2013-02-24 23:13:00
6:54 PM,30.7,25.9,82,30.06,10.0,West,6.9,-,N/A,,Overcast,280,2013-02-24 23:54:00
7:13 PM,30.9,25.7,81,30.07,10.0,WNW,5.8,-,N/A,,Overcast,300,2013-02-25 00:13:00
7:33 PM,30.2,26.1,85,30.08,10.0,WNW,4.6,-,N/A,,Overcast,300,2013-02-25 00:33:00
7:54 PM,30.2,25.7,83,30.08,10.0,NW,5.8,-,N/A,,Overcast,310,2013-02-25 00:54:00
8:13 PM,30.0,25.7,84,30.08,10.0,NW,4.6,-,N/A,,Overcast,320,2013-02-25 01:13:00
8:33 PM,30.0,25.7,84,30.08,10.0,NNW,4.6,-,N/A,,Overcast,340,2013-02-25 01:33:00
8:54 PM,29.8,25.0,82,30.09,10.0,NNW,5.8,-,N/A,,Overcast,330,2013-02-25 01:54:00
9:13 PM,29.7,24.4,81,30.09,10.0,North,6.9,-,N/A,,Overcast,350,2013-02-25 02:13:00
9:33 PM,29.3,23.9,80,30.09,10.0,NNW,4.6,-,N/A,,Overcast,340,2013-02-25 02:33:00
9:54 PM,29.3,23.9,80,30.09,10.0,Calm,Calm,-,N/A,,Overcast,0,2013-02-25 02:54:00
10:13 PM,29.1,23.9,81,30.09,10.0,WNW,4.6,-,N/A,,Overcast,300,2013-02-25 03:13:00
10:33 PM,28.8,23.5,81,30.09,10.0,WNW,4.6,-,N/A,,Overcast,300,2013-02-25 03:33:00
10:54 PM,28.8,23.4,80,30.10,10.0,WNW,5.8,-,N/A,,Overcast,290,2013-02-25 03:54:00
11:13 PM,28.4,23.0,80,30.10,10.0,WNW,5.8,-,N/A,,Overcast,290,2013-02-25 04:13:00
11:34 PM,28.4,23.0,80,30.10,10.0,NW,4.6,-,N/A,,Overcast,310,2013-02-25 04:34:00
11:53 PM,28.2,23.2,81,30.10,10.0,Calm,Calm,-,N/A,,Overcast,0,2013-02-25 04:53:00